Saltillo, Arkansas
Current Conditions -  °F | °C
As of 3:03 AM on Monday 24 Nov 2014 (Local Time) from KLRF Reporting Station
Overcast Overcast  
Wind Chill: 50°   Ceiling: 3600
Heat Index: 50°   Visibility: 10mi
Dew Point: 43°   Wind: 15mph
Humidity: 76%   Direction: 260°W
Pressure: 29.62"   Gusts: 26mph
Location:  35.0822°N, 92.366°W
Report Text: KLRF 240903Z AUTO 26013G23KT 10SM SCT026 OVC036 10/06 A2962 RMK AO2
Loading
Personal Weather Stations






























Interactive Weather Map New forecast layout! Learn more

10-Day Weather Forecast

Advertisements
Track Severe Weather on mobile